Sukhoi Superjet 100-Absturz in Indonesien

Diskutiere Sukhoi Superjet 100-Absturz in Indonesien im Flugunfälle und Flugunfallforschung Forum im Bereich Luftfahrzeuge allgemein; Im Internet verbreiten sich Meldungen über den Absturz einer Sukhoi Superjet 100 in Indonesien. Das Flugzeug war auf einer Demo-Tour unterwegs....

Moderatoren: mcnoch
  1. #1 IberiaMD-87, 09.05.2012
    IberiaMD-87

    IberiaMD-87 Astronaut

    Dabei seit:
    22.02.2005
    Beiträge:
    2.695
    Zustimmungen:
    842
    Beruf:
    In Kabinen von A319/320
    Ort:
    Hamburg
    Im Internet verbreiten sich Meldungen über den Absturz einer Sukhoi Superjet 100 in Indonesien. Das Flugzeug war auf einer Demo-Tour unterwegs.

    Eine Quelle:

    in russisch
     
  2. Anzeige

    Schau dir mal die beiden Links an:
    diesen Ratgeber und die Flugzeug-Kategorie

    Registrieren bzw. einloggen, um diese und auch andere Anzeigen zu deaktivieren
  3. #2 IberiaMD-87, 09.05.2012
    IberiaMD-87

    IberiaMD-87 Astronaut

    Dabei seit:
    22.02.2005
    Beiträge:
    2.695
    Zustimmungen:
    842
    Beruf:
    In Kabinen von A319/320
    Ort:
    Hamburg
    An Bord sollen sich 44 Menschen befunden haben. Das Flugzeug sollte u.a. Batavia, Pelita, Air Aviastar und Sriwijaya Air vorgeführt werden und verschwand vom Radarschirm.

    Eine weitere Meldung
     
  4. #3 Taliesin, 09.05.2012
    Taliesin

    Taliesin Astronaut

    Dabei seit:
    13.07.2008
    Beiträge:
    2.585
    Zustimmungen:
    896
    Ort:
    Nürnberg
  5. banji

    banji Flieger-Ass

    Dabei seit:
    09.03.2011
    Beiträge:
    495
    Zustimmungen:
    439
    Beruf:
    hat er
    Ort:
    Landau
    Spekulation

    En Route an einem Berg namens Mount Salak verschwunden...

    In der Meldung von AV Herald steht, dass die Maschine cleared war auf 6000 Fuß zu sinken. Der Berg ist aber mal eben 7.250 Fuß hoch (Quelle eng. Wikipedia u. AV Herald), steht aber relativ allein da in der Gegend rum. CFIT?? zumindest morgens war die Sicht wohl nich sehr gut.
     
  6. #5 IberiaMD-87, 09.05.2012
    IberiaMD-87

    IberiaMD-87 Astronaut

    Dabei seit:
    22.02.2005
    Beiträge:
    2.695
    Zustimmungen:
    842
    Beruf:
    In Kabinen von A319/320
    Ort:
    Hamburg
    Im großen indonesischem Forum "Indoflyer" existiert ein Thread, wo offensichtlich über die Demoflüge in Wort Bild berichtet und dieser Thread dann eine ganz andere Entwicklung nimmt:

    Demotour-Thread auf Indoflyer

    Gruss
     
  7. banji

    banji Flieger-Ass

    Dabei seit:
    09.03.2011
    Beiträge:
    495
    Zustimmungen:
    439
    Beruf:
    hat er
    Ort:
    Landau
    kannst du uns mal zusammengefasst aufklären? Ich spreche kein indonesisch, und kann die Seite komischerweise auch nicht mit google übersetzen
     
  8. #7 Rhönlerche, 09.05.2012
    Rhönlerche

    Rhönlerche Alien

    Dabei seit:
    27.03.2002
    Beiträge:
    5.836
    Zustimmungen:
    1.106
    Ort:
    Deutschland
  9. #8 Swiss, 09.05.2012
    Zuletzt bearbeitet: 09.05.2012
    Swiss

    Swiss Flieger-Ass

    Dabei seit:
    18.09.2008
    Beiträge:
    467
    Zustimmungen:
    84
    Ort:
    Schweiz
    So jetzt hab ich mich durch die unzähligen News gewühlt und mich ein wenig vom ersten Schock erholt :FFCry:

    Es war der 2te Flug heute. Der Erste verlief ohne Probleme. Vom 2ten kam (RA)-97004 (das 3te Testflugzeug vom Superjet) leider nicht zurück. Mittlerweile ist es in Jakarta dunkel und es regnet. Dies erschwert die Suche nach dem Flieger.

    Der Demoflieger war vor allem wegen neuen Kunden und Sky Aviation in Indonesien. Daher waren die Kopfstützen mit Sky Aviation Deckchen versehen. Eigentlich bis jetzt nichts, was auf ein Unglück hinweisen könnte. Auch die beiden Testpiloten waren sehr erfahren.

    Mal schauen, was die nächsten News hervorbringen.


    Wetter:
    WIII 091100Z VRB03KT 8000 FEW021 29/24 Q1009 NOSIG
    WIII 091030Z 06007KT 8000 FEW020CB FEW021 29/25 Q1009 RMK CB TO NW WIII 091030Z 06007KT 8000 FEW021 FEW020CB 29/25 Q1009 RMK CB bis NW
    WIII 091000Z 04006KT 9000 FEW021 30/25 Q1009 NOSIG WIII 091000Z 04006KT 9000 FEW021 30/25 Q1009 NOSIG
    WIII 090930Z 03006KT 9000 FEW021 30/25 Q1008 NOSIG WIII 090930Z 03006KT 9000 FEW021 30/25 Q1008 NOSIG
     
  10. #9 Vtg-Amtmann, 09.05.2012
    Vtg-Amtmann

    Vtg-Amtmann inaktiv

    Dabei seit:
    17.07.2009
    Beiträge:
    1.469
    Zustimmungen:
    57
    Beruf:
    Pilot & consultant
    Ort:
    Franken
    Ubersetzung Indonesian Google-Translator reverse

    Bin mal ins "Indonesische Google" und habe das arbeiten lassen. Übersetzung steht im FF-Testforum.

    Gruß @all, Vtg-Amtmann
     
  11. #10 Learjet, 09.05.2012
    Learjet

    Learjet Astronaut
    Moderator

    Dabei seit:
    08.02.2010
    Beiträge:
    2.570
    Zustimmungen:
    1.510
    Beruf:
    Flugschüler ATPL(A)
    Ort:
    NRW
    Auf Aviation-Safety kann man lesen, dass die Maschine die Kennung 97004 gehabt haben soll.
     
  12. mcnoch

    mcnoch Alien
    Administrator

    Dabei seit:
    18.04.2003
    Beiträge:
    8.294
    Zustimmungen:
    3.222
    Beruf:
    IT Management
    Ort:
    Nürnberg
  13. Reaper

    Reaper Fluglehrer

    Dabei seit:
    12.10.2005
    Beiträge:
    188
    Zustimmungen:
    6
    Ort:
    Nord - Süd
  14. #13 IberiaMD-87, 09.05.2012
    IberiaMD-87

    IberiaMD-87 Astronaut

    Dabei seit:
    22.02.2005
    Beiträge:
    2.695
    Zustimmungen:
    842
    Beruf:
    In Kabinen von A319/320
    Ort:
    Hamburg
    Ich kann auch kein indonesisch, bin zwischen Tür und Angel und irgendwie funktioniert die Übersetzung auch nicht bei mir, vorhin schon...

    Das ist lieb! Kannst ja Deine Mühe hier posten.

    Gruss
     
  15. Swiss

    Swiss Flieger-Ass

    Dabei seit:
    18.09.2008
    Beiträge:
    467
    Zustimmungen:
    84
    Ort:
    Schweiz
    Im Moment gibt es ein Bild vom Flug und dem Absturzort. Zudem soll ein Helipilot angeblich das Wrack gesichtet haben. Das Wetter sei weiterhin sehr schlecht.
    http://twitpic.com/9j3zy1
     
  16. #15 IberiaMD-87, 09.05.2012
    IberiaMD-87

    IberiaMD-87 Astronaut

    Dabei seit:
    22.02.2005
    Beiträge:
    2.695
    Zustimmungen:
    842
    Beruf:
    In Kabinen von A319/320
    Ort:
    Hamburg
    Das kann ich verstehen, besonders, da Du u.a. eine schöne Homepage u.a. über diesen Flugzeugtyp anbietest. Wann hast Du die Möglichkeit, Deine Seite zu aktualisieren?

    Schön wäre es, wenn Du Informationen zusammentragen könntest. Bislang ist vieles spekulativ. Für das Flugzeugprogramm betrachte ich es als herben Rückschlag, da eine solche Meldung verheerend sein kann, unabhängig davon, welche Ursache zum Absturz geführt haben mag.

    Gruss
     
  17. #16 Learjet, 09.05.2012
    Learjet

    Learjet Astronaut
    Moderator

    Dabei seit:
    08.02.2010
    Beiträge:
    2.570
    Zustimmungen:
    1.510
    Beruf:
    Flugschüler ATPL(A)
    Ort:
    NRW
    Das hat er doch!? Guck mal im Testforum nach.
     
  18. #17 Schorsch, 09.05.2012
    Schorsch

    Schorsch Alien

    Dabei seit:
    22.01.2005
    Beiträge:
    10.623
    Zustimmungen:
    2.277
    Beruf:
    Flugzeugzeug machen.
    Ort:
    mit Elbblick
    Bei einem Aufschlag in dichten Dschungel ist das Entdecken eines Wracks nicht leicht.
    Nach den wenigen dürftigen fakten sieht es für mich wie ein "klassisches" Navigationsproblem aus, technischer Fehler sehr unwahrscheinlich.
     
  19. Swiss

    Swiss Flieger-Ass

    Dabei seit:
    18.09.2008
    Beiträge:
    467
    Zustimmungen:
    84
    Ort:
    Schweiz
    Am Wochenende aktualisiere ich die Page. Muss noch die beiden neusten Zugänge malen.

    Ich empfehle diesen Twitterthread zu verfolgen (ist auf russisch - halt übersetzen): https://twitter.com/#!/lystseva

    Lystseva Marina war auf dem Morgenflug dabei (Glück muss man haben) und ist jetzt mit Ihrem Kollege an der Pressekonferenz bzw. vor Ort und posted alle wichtigen News und Bilder. Ich bin nebenbei in den russischen Foren am mitlesen.
     
  20. Anzeige

    Hallo

    Schau dir doch mal die Luftfahrt-Kategorie an

    Registrieren bzw. einloggen, um diese und auch andere Anzeigen zu deaktivieren
  21. banji

    banji Flieger-Ass

    Dabei seit:
    09.03.2011
    Beiträge:
    495
    Zustimmungen:
    439
    Beruf:
    hat er
    Ort:
    Landau
    Trozdem vielen Dank für die Übersetzung, wobei ich sie auch gleich gefunden hab ;-)

    Mittlerweile in allen Mainstream Medien. Kann Schorsch die Vermutung mit dem Nav Prob nochmal genauer erläutern
     
  22. Swiss

    Swiss Flieger-Ass

    Dabei seit:
    18.09.2008
    Beiträge:
    467
    Zustimmungen:
    84
    Ort:
    Schweiz
    Es sind waren wohl 50 Personen an Bord des Superjets :(

    Bild1 & Bild2
     
Moderatoren: mcnoch
Thema:

Sukhoi Superjet 100-Absturz in Indonesien

Die Seite wird geladen...

Sukhoi Superjet 100-Absturz in Indonesien - Ähnliche Themen

  1. Sukhoi Superjet 100 90 Jahre Aeroflot

    Sukhoi Superjet 100 90 Jahre Aeroflot: Guten Tag zusammen. Ich habe den Sukhoi Superjet 100 von Zvesda und würde gerne die Variante des Jubiläumsanstriches 90 Jahre Aeroflot bauen (die...
  2. Sukhoi SJ 100 95B (SuperJet)

    Sukhoi SJ 100 95B (SuperJet): [ATTACH][ATTACH]
  3. Sukhoi Superjet: Bauchlandung in Reykjavik

    Sukhoi Superjet: Bauchlandung in Reykjavik: Der Prototyp 95005 hat in Reykjavik während der Zulassung für Cat IIIa eine Bauchlandung hingelegt. Es kam zu keinen schweren Verletzungen bei den...
  4. Heute der Sukhoi Superjet - und morgen...

    Heute der Sukhoi Superjet - und morgen...: die MS-21: Google-Ergebnis für http://www.flightglobal.com/blogs/runway-girl/MS-21%25201.JPG Das einzige Problem scheint das Design zu sein,...
  5. Sukhoi Superjet SSJ 100 (Jetrack)

    Sukhoi Superjet SSJ 100 (Jetrack): Es geht langsam auf die nächsten Ausstellungen zu, somit steigt auch wieder meine Produktivität. Der Vogel den ich euch zeigen möchte, ist der...